Lake Valley, New Mexico
Current Conditions -  °F | °C
As of 11:35 PM on Saturday 27 Dec 2014 (Local Time) from KGNT Reporting Station
Clear Clear  
Wind Chill:   Ceiling: Unl
Heat Index:   Visibility: 10mi
Dew Point:   Wind: 3mph
Humidity: 87%   Direction: 310°NW
Pressure: 30.27"   Gusts: NA
Location:  35.803°N, 107.893°W
Report Text: KGNT 280635Z AUTO 31003KT 10SM CLR M14/M15 A3027 RMK AO2 T11361153
Loading
Personal Weather Stations






























Interactive Weather Map New forecast layout! Learn more

10-Day Weather Forecast

Advertisements
Track Severe Weather on mobile